sensor_id;sensor_type;location;lat;lon;timestamp;P1;durP1;ratioP1;P2;durP2;ratioP2
6497;SDS011;3282;48.358;10.958;2022-08-19T00:01:57;5.47;;;3.72;;
6497;SDS011;3282;48.358;10.958;2022-08-19T00:04:29;6.35;;;3.80;;
6497;SDS011;3282;48.358;10.958;2022-08-19T00:07:06;5.18;;;4.03;;
6497;SDS011;3282;48.358;10.958;2022-08-19T00:09:32;4.78;;;3.88;;
6497;SDS011;3282;48.358;10.958;2022-08-19T00:11:59;4.60;;;3.70;;
6497;SDS011;3282;48.358;10.958;2022-08-19T00:14:26;4.85;;;3.60;;
6497;SDS011;3282;48.358;10.958;2022-08-19T00:16:53;4.70;;;3.67;;
6497;SDS011;3282;48.358;10.958;2022-08-19T00:19:21;4.45;;;3.40;;
6497;SDS011;3282;48.358;10.958;2022-08-19T00:21:48;7.22;;;3.55;;
6497;SDS011;3282;48.358;10.958;2022-08-19T00:24:15;5.03;;;3.47;;
6497;SDS011;3282;48.358;10.958;2022-08-19T00:26:43;4.43;;;3.20;;
6497;SDS011;3282;48.358;10.958;2022-08-19T00:29:12;4.85;;;3.00;;
6497;SDS011;3282;48.358;10.958;2022-08-19T00:31:40;4.45;;;3.08;;
6497;SDS011;3282;48.358;10.958;2022-08-19T00:34:09;4.50;;;3.13;;
6497;SDS011;3282;48.358;10.958;2022-08-19T00:36:38;4.63;;;3.00;;
6497;SDS011;3282;48.358;10.958;2022-08-19T00:39:05;4.07;;;3.10;;
6497;SDS011;3282;48.358;10.958;2022-08-19T00:41:33;4.13;;;2.70;;
6497;SDS011;3282;48.358;10.958;2022-08-19T00:44:01;3.60;;;2.40;;
6497;SDS011;3282;48.358;10.958;2022-08-19T00:46:28;4.30;;;2.30;;
6497;SDS011;3282;48.358;10.958;2022-08-19T00:48:55;4.03;;;2.35;;
6497;SDS011;3282;48.358;10.958;2022-08-19T00:51:24;7.28;;;2.65;;
6497;SDS011;3282;48.358;10.958;2022-08-19T00:53:57;4.95;;;2.70;;
6497;SDS011;3282;48.358;10.958;2022-08-19T00:56:25;6.10;;;3.05;;
6497;SDS011;3282;48.358;10.958;2022-08-19T00:58:54;5.07;;;2.92;;
6497;SDS011;3282;48.358;10.958;2022-08-19T01:01:22;4.25;;;2.50;;
6497;SDS011;3282;48.358;10.958;2022-08-19T01:03:49;4.82;;;2.55;;
6497;SDS011;3282;48.358;10.958;2022-08-19T01:06:26;3.90;;;2.22;;
6497;SDS011;3282;48.358;10.958;2022-08-19T01:08:53;5.45;;;2.50;;
6497;SDS011;3282;48.358;10.958;2022-08-19T01:11:21;4.97;;;2.40;;
6497;SDS011;3282;48.358;10.958;2022-08-19T01:13:50;5.30;;;2.70;;
6497;SDS011;3282;48.358;10.958;2022-08-19T01:16:19;3.63;;;2.25;;
6497;SDS011;3282;48.358;10.958;2022-08-19T01:18:48;5.38;;;2.67;;
6497;SDS011;3282;48.358;10.958;2022-08-19T01:21:18;4.43;;;2.72;;
6497;SDS011;3282;48.358;10.958;2022-08-19T01:23:53;6.90;;;2.97;;
6497;SDS011;3282;48.358;10.958;2022-08-19T01:26:21;5.78;;;3.22;;
6497;SDS011;3282;48.358;10.958;2022-08-19T01:28:50;5.22;;;3.00;;
6497;SDS011;3282;48.358;10.958;2022-08-19T01:31:25;4.90;;;3.30;;
6497;SDS011;3282;48.358;10.958;2022-08-19T01:33:58;3.70;;;2.65;;
6497;SDS011;3282;48.358;10.958;2022-08-19T01:36:34;7.85;;;3.40;;
6497;SDS011;3282;48.358;10.958;2022-08-19T01:39:04;5.10;;;3.50;;
6497;SDS011;3282;48.358;10.958;2022-08-19T01:41:35;5.63;;;3.40;;
6497;SDS011;3282;48.358;10.958;2022-08-19T01:44:03;6.63;;;4.38;;
6497;SDS011;3282;48.358;10.958;2022-08-19T01:46:45;6.88;;;4.38;;
6497;SDS011;3282;48.358;10.958;2022-08-19T01:49:14;5.85;;;4.75;;
6497;SDS011;3282;48.358;10.958;2022-08-19T01:51:42;5.32;;;4.20;;
6497;SDS011;3282;48.358;10.958;2022-08-19T01:54:09;7.63;;;5.75;;
6497;SDS011;3282;48.358;10.958;2022-08-19T01:56:37;8.73;;;6.00;;
6497;SDS011;3282;48.358;10.958;2022-08-19T01:59:06;6.43;;;5.10;;
6497;SDS011;3282;48.358;10.958;2022-08-19T02:01:38;7.32;;;5.47;;
6497;SDS011;3282;48.358;10.958;2022-08-19T02:04:05;8.63;;;6.65;;
6497;SDS011;3282;48.358;10.958;2022-08-19T02:06:32;9.82;;;6.70;;
6497;SDS011;3282;48.358;10.958;2022-08-19T02:09:00;9.35;;;6.47;;
6497;SDS011;3282;48.358;10.958;2022-08-19T02:11:31;8.32;;;6.60;;
6497;SDS011;3282;48.358;10.958;2022-08-19T02:14:00;7.20;;;5.95;;
6497;SDS011;3282;48.358;10.958;2022-08-19T02:16:28;9.07;;;7.40;;
6497;SDS011;3282;48.358;10.958;2022-08-19T02:18:56;9.45;;;7.47;;
6497;SDS011;3282;48.358;10.958;2022-08-19T02:21:26;9.43;;;7.20;;
6497;SDS011;3282;48.358;10.958;2022-08-19T02:23:54;8.90;;;7.18;;
6497;SDS011;3282;48.358;10.958;2022-08-19T02:26:21;9.95;;;7.60;;
6497;SDS011;3282;48.358;10.958;2022-08-19T02:28:52;9.57;;;6.60;;
6497;SDS011;3282;48.358;10.958;2022-08-19T02:31:22;9.15;;;7.00;;
6497;SDS011;3282;48.358;10.958;2022-08-19T02:33:51;10.35;;;8.05;;
6497;SDS011;3282;48.358;10.958;2022-08-19T02:36:22;11.80;;;8.50;;
6497;SDS011;3282;48.358;10.958;2022-08-19T02:38:50;9.48;;;7.78;;
6497;SDS011;3282;48.358;10.958;2022-08-19T02:41:21;14.77;;;10.10;;
6497;SDS011;3282;48.358;10.958;2022-08-19T02:43:53;11.90;;;9.17;;
6497;SDS011;3282;48.358;10.958;2022-08-19T02:46:45;12.90;;;9.88;;
6497;SDS011;3282;48.358;10.958;2022-08-19T02:49:17;11.93;;;9.60;;
6497;SDS011;3282;48.358;10.958;2022-08-19T02:51:45;12.13;;;10.32;;
6497;SDS011;3282;48.358;10.958;2022-08-19T02:54:12;14.40;;;11.02;;
6497;SDS011;3282;48.358;10.958;2022-08-19T02:56:40;12.98;;;10.63;;
6497;SDS011;3282;48.358;10.958;2022-08-19T02:59:08;12.48;;;10.40;;
6497;SDS011;3282;48.358;10.958;2022-08-19T03:01:37;17.17;;;12.98;;
6497;SDS011;3282;48.358;10.958;2022-08-19T03:04:06;15.45;;;12.50;;
6497;SDS011;3282;48.358;10.958;2022-08-19T03:06:38;15.00;;;12.43;;
6497;SDS011;3282;48.358;10.958;2022-08-19T03:09:08;16.67;;;12.65;;
6497;SDS011;3282;48.358;10.958;2022-08-19T03:11:36;18.77;;;13.77;;
6497;SDS011;3282;48.358;10.958;2022-08-19T03:14:04;23.80;;;16.50;;
6497;SDS011;3282;48.358;10.958;2022-08-19T03:16:34;17.60;;;14.20;;
6497;SDS011;3282;48.358;10.958;2022-08-19T03:19:07;20.40;;;15.20;;
6497;SDS011;3282;48.358;10.958;2022-08-19T03:21:34;20.65;;;16.02;;
6497;SDS011;3282;48.358;10.958;2022-08-19T03:24:01;19.60;;;15.30;;
6497;SDS011;3282;48.358;10.958;2022-08-19T03:26:30;18.77;;;15.82;;
6497;SDS011;3282;48.358;10.958;2022-08-19T03:28:57;21.00;;;16.95;;
6497;SDS011;3282;48.358;10.958;2022-08-19T03:31:25;21.25;;;16.00;;
6497;SDS011;3282;48.358;10.958;2022-08-19T03:34:32;19.45;;;15.68;;
6497;SDS011;3282;48.358;10.958;2022-08-19T03:36:59;19.77;;;16.08;;
6497;SDS011;3282;48.358;10.958;2022-08-19T03:39:33;22.75;;;17.10;;
6497;SDS011;3282;48.358;10.958;2022-08-19T03:42:03;27.20;;;20.45;;
6497;SDS011;3282;48.358;10.958;2022-08-19T03:44:49;24.80;;;19.05;;
6497;SDS011;3282;48.358;10.958;2022-08-19T03:47:16;27.63;;;19.92;;
6497;SDS011;3282;48.358;10.958;2022-08-19T03:49:43;24.23;;;19.67;;
6497;SDS011;3282;48.358;10.958;2022-08-19T03:52:10;27.30;;;20.17;;
6497;SDS011;3282;48.358;10.958;2022-08-19T03:54:36;25.67;;;20.13;;
6497;SDS011;3282;48.358;10.958;2022-08-19T03:57:04;25.15;;;19.70;;
6497;SDS011;3282;48.358;10.958;2022-08-19T03:59:32;34.33;;;23.63;;
6497;SDS011;3282;48.358;10.958;2022-08-19T04:02:01;29.13;;;21.60;;
6497;SDS011;3282;48.358;10.958;2022-08-19T04:04:29;42.50;;;26.40;;
6497;SDS011;3282;48.358;10.958;2022-08-19T04:06:58;37.22;;;25.27;;
6497;SDS011;3282;48.358;10.958;2022-08-19T04:09:25;36.15;;;25.63;;
6497;SDS011;3282;48.358;10.958;2022-08-19T04:11:53;38.72;;;25.45;;
6497;SDS011;3282;48.358;10.958;2022-08-19T04:14:22;32.00;;;23.67;;
6497;SDS011;3282;48.358;10.958;2022-08-19T04:16:58;41.47;;;27.30;;
6497;SDS011;3282;48.358;10.958;2022-08-19T04:19:25;43.30;;;28.30;;
6497;SDS011;3282;48.358;10.958;2022-08-19T04:21:53;44.22;;;28.30;;
6497;SDS011;3282;48.358;10.958;2022-08-19T04:24:20;36.60;;;25.45;;
6497;SDS011;3282;48.358;10.958;2022-08-19T04:26:50;40.97;;;27.55;;
6497;SDS011;3282;48.358;10.958;2022-08-19T04:29:22;43.83;;;28.92;;
6497;SDS011;3282;48.358;10.958;2022-08-19T04:31:51;43.83;;;28.42;;
6497;SDS011;3282;48.358;10.958;2022-08-19T04:34:21;36.83;;;25.38;;
6497;SDS011;3282;48.358;10.958;2022-08-19T04:36:50;39.65;;;27.08;;
6497;SDS011;3282;48.358;10.958;2022-08-19T04:39:19;36.22;;;26.00;;
6497;SDS011;3282;48.358;10.958;2022-08-19T04:41:49;36.50;;;26.20;;
6497;SDS011;3282;48.358;10.958;2022-08-19T04:44:35;38.90;;;27.15;;
6497;SDS011;3282;48.358;10.958;2022-08-19T04:47:11;32.42;;;23.05;;
6497;SDS011;3282;48.358;10.958;2022-08-19T04:49:38;33.38;;;24.63;;
6497;SDS011;3282;48.358;10.958;2022-08-19T04:52:04;37.38;;;26.13;;
6497;SDS011;3282;48.358;10.958;2022-08-19T04:54:31;42.63;;;27.92;;
6497;SDS011;3282;48.358;10.958;2022-08-19T04:57:05;34.70;;;25.20;;
6497;SDS011;3282;48.358;10.958;2022-08-19T04:59:34;40.42;;;26.85;;
6497;SDS011;3282;48.358;10.958;2022-08-19T05:02:01;34.28;;;25.15;;
6497;SDS011;3282;48.358;10.958;2022-08-19T05:04:29;35.72;;;25.25;;
6497;SDS011;3282;48.358;10.958;2022-08-19T05:06:58;33.88;;;24.95;;
6497;SDS011;3282;48.358;10.958;2022-08-19T05:09:27;38.88;;;25.85;;
6497;SDS011;3282;48.358;10.958;2022-08-19T05:12:15;34.70;;;25.23;;
6497;SDS011;3282;48.358;10.958;2022-08-19T05:14:46;38.20;;;27.17;;
6497;SDS011;3282;48.358;10.958;2022-08-19T05:17:15;34.50;;;25.08;;
6497;SDS011;3282;48.358;10.958;2022-08-19T05:19:53;31.67;;;23.95;;
6497;SDS011;3282;48.358;10.958;2022-08-19T05:22:39;35.10;;;25.40;;
6497;SDS011;3282;48.358;10.958;2022-08-19T05:25:11;29.17;;;22.33;;
6497;SDS011;3282;48.358;10.958;2022-08-19T05:27:40;28.38;;;21.88;;
6497;SDS011;3282;48.358;10.958;2022-08-19T05:30:09;36.95;;;25.70;;
6497;SDS011;3282;48.358;10.958;2022-08-19T05:32:37;34.35;;;24.35;;
6497;SDS011;3282;48.358;10.958;2022-08-19T05:35:05;39.35;;;25.80;;
6497;SDS011;3282;48.358;10.958;2022-08-19T05:37:32;46.40;;;28.45;;
6497;SDS011;3282;48.358;10.958;2022-08-19T05:39:59;33.80;;;24.70;;
6497;SDS011;3282;48.358;10.958;2022-08-19T05:42:29;35.25;;;25.55;;
6497;SDS011;3282;48.358;10.958;2022-08-19T05:45:00;34.65;;;25.10;;
6497;SDS011;3282;48.358;10.958;2022-08-19T05:47:27;32.72;;;23.50;;
6497;SDS011;3282;48.358;10.958;2022-08-19T05:49:53;33.45;;;24.30;;
6497;SDS011;3282;48.358;10.958;2022-08-19T05:52:20;33.95;;;24.23;;
6497;SDS011;3282;48.358;10.958;2022-08-19T05:54:51;36.65;;;25.90;;
6497;SDS011;3282;48.358;10.958;2022-08-19T05:57:18;38.35;;;26.08;;
6497;SDS011;3282;48.358;10.958;2022-08-19T05:59:45;38.75;;;26.08;;
6497;SDS011;3282;48.358;10.958;2022-08-19T06:02:23;40.97;;;26.58;;
6497;SDS011;3282;48.358;10.958;2022-08-19T06:04:54;30.98;;;22.80;;
6497;SDS011;3282;48.358;10.958;2022-08-19T06:07:20;35.60;;;25.15;;
6497;SDS011;3282;48.358;10.958;2022-08-19T06:09:47;34.30;;;24.52;;
6497;SDS011;3282;48.358;10.958;2022-08-19T06:12:29;35.13;;;24.73;;
6497;SDS011;3282;48.358;10.958;2022-08-19T06:15:02;37.67;;;25.88;;
6497;SDS011;3282;48.358;10.958;2022-08-19T06:17:34;40.70;;;26.77;;
6497;SDS011;3282;48.358;10.958;2022-08-19T06:20:05;39.47;;;27.75;;
6497;SDS011;3282;48.358;10.958;2022-08-19T06:22:43;43.53;;;28.13;;
6497;SDS011;3282;48.358;10.958;2022-08-19T06:25:12;40.35;;;27.90;;
6497;SDS011;3282;48.358;10.958;2022-08-19T06:27:40;46.30;;;28.30;;
6497;SDS011;3282;48.358;10.958;2022-08-19T06:30:27;43.28;;;28.80;;
6497;SDS011;3282;48.358;10.958;2022-08-19T06:32:54;40.90;;;27.75;;
6497;SDS011;3282;48.358;10.958;2022-08-19T06:35:20;44.05;;;29.70;;
6497;SDS011;3282;48.358;10.958;2022-08-19T06:37:47;50.33;;;31.25;;
6497;SDS011;3282;48.358;10.958;2022-08-19T06:40:14;49.67;;;31.58;;
6497;SDS011;3282;48.358;10.958;2022-08-19T06:42:40;40.28;;;28.58;;
6497;SDS011;3282;48.358;10.958;2022-08-19T06:45:20;48.08;;;31.48;;
6497;SDS011;3282;48.358;10.958;2022-08-19T06:47:59;39.90;;;28.10;;
6497;SDS011;3282;48.358;10.958;2022-08-19T06:50:26;50.30;;;30.85;;
6497;SDS011;3282;48.358;10.958;2022-08-19T06:52:53;45.63;;;30.13;;
6497;SDS011;3282;48.358;10.958;2022-08-19T06:55:20;43.53;;;29.15;;
6497;SDS011;3282;48.358;10.958;2022-08-19T06:57:47;46.05;;;29.83;;
6497;SDS011;3282;48.358;10.958;2022-08-19T07:00:14;41.47;;;28.27;;
6497;SDS011;3282;48.358;10.958;2022-08-19T07:02:42;50.95;;;31.65;;
6497;SDS011;3282;48.358;10.958;2022-08-19T07:05:21;49.15;;;31.33;;
6497;SDS011;3282;48.358;10.958;2022-08-19T07:07:49;43.80;;;30.15;;
6497;SDS011;3282;48.358;10.958;2022-08-19T07:10:18;45.30;;;29.60;;
6497;SDS011;3282;48.358;10.958;2022-08-19T07:12:45;47.25;;;30.92;;
6497;SDS011;3282;48.358;10.958;2022-08-19T07:15:12;46.03;;;29.83;;
6497;SDS011;3282;48.358;10.958;2022-08-19T07:17:39;45.92;;;30.25;;
6497;SDS011;3282;48.358;10.958;2022-08-19T07:20:07;54.67;;;33.15;;
6497;SDS011;3282;48.358;10.958;2022-08-19T07:22:38;50.65;;;31.83;;
6497;SDS011;3282;48.358;10.958;2022-08-19T07:25:06;56.75;;;34.42;;
6497;SDS011;3282;48.358;10.958;2022-08-19T07:27:34;45.58;;;30.10;;
6497;SDS011;3282;48.358;10.958;2022-08-19T07:30:01;46.17;;;30.45;;
6497;SDS011;3282;48.358;10.958;2022-08-19T07:32:29;47.85;;;31.92;;
6497;SDS011;3282;48.358;10.958;2022-08-19T07:34:57;57.08;;;33.58;;
6497;SDS011;3282;48.358;10.958;2022-08-19T07:37:26;54.47;;;33.75;;
6497;SDS011;3282;48.358;10.958;2022-08-19T07:39:58;47.28;;;31.05;;
6497;SDS011;3282;48.358;10.958;2022-08-19T07:42:26;56.17;;;33.85;;
6497;SDS011;3282;48.358;10.958;2022-08-19T07:44:54;52.50;;;33.38;;
6497;SDS011;3282;48.358;10.958;2022-08-19T07:47:21;56.13;;;33.35;;
6497;SDS011;3282;48.358;10.958;2022-08-19T07:50:08;53.28;;;34.28;;
6497;SDS011;3282;48.358;10.958;2022-08-19T07:52:37;57.97;;;35.05;;
6497;SDS011;3282;48.358;10.958;2022-08-19T07:55:14;66.63;;;37.78;;
6497;SDS011;3282;48.358;10.958;2022-08-19T07:58:03;65.38;;;37.25;;
6497;SDS011;3282;48.358;10.958;2022-08-19T08:00:31;60.28;;;35.10;;
6497;SDS011;3282;48.358;10.958;2022-08-19T08:02:57;70.20;;;38.17;;
6497;SDS011;3282;48.358;10.958;2022-08-19T08:05:24;56.15;;;34.28;;
6497;SDS011;3282;48.358;10.958;2022-08-19T08:08:10;63.17;;;35.63;;
6497;SDS011;3282;48.358;10.958;2022-08-19T08:10:57;65.60;;;36.33;;
6497;SDS011;3282;48.358;10.958;2022-08-19T08:13:24;64.68;;;35.38;;
6497;SDS011;3282;48.358;10.958;2022-08-19T08:15:51;66.32;;;36.58;;
6497;SDS011;3282;48.358;10.958;2022-08-19T08:18:21;73.38;;;39.15;;
6497;SDS011;3282;48.358;10.958;2022-08-19T08:20:52;70.60;;;38.33;;
6497;SDS011;3282;48.358;10.958;2022-08-19T08:23:21;67.45;;;37.78;;
6497;SDS011;3282;48.358;10.958;2022-08-19T08:25:48;72.43;;;38.47;;
6497;SDS011;3282;48.358;10.958;2022-08-19T08:28:15;72.03;;;39.05;;
6497;SDS011;3282;48.358;10.958;2022-08-19T08:30:43;66.88;;;37.78;;
6497;SDS011;3282;48.358;10.958;2022-08-19T08:33:13;64.53;;;37.03;;
6497;SDS011;3282;48.358;10.958;2022-08-19T08:36:02;67.85;;;36.80;;
6497;SDS011;3282;48.358;10.958;2022-08-19T08:38:31;70.18;;;37.50;;
6497;SDS011;3282;48.358;10.958;2022-08-19T08:43:46;60.95;;;35.85;;
6497;SDS011;3282;48.358;10.958;2022-08-19T08:46:16;70.80;;;37.58;;
6497;SDS011;3282;48.358;10.958;2022-08-19T08:51:44;69.53;;;37.40;;
6497;SDS011;3282;48.358;10.958;2022-08-19T08:54:32;64.72;;;35.85;;
6497;SDS011;3282;48.358;10.958;2022-08-19T08:57:09;65.35;;;36.88;;
6497;SDS011;3282;48.358;10.958;2022-08-19T08:59:39;75.30;;;39.20;;
6497;SDS011;3282;48.358;10.958;2022-08-19T09:02:07;94.32;;;43.13;;
6497;SDS011;3282;48.358;10.958;2022-08-19T09:04:37;67.63;;;38.15;;
6497;SDS011;3282;48.358;10.958;2022-08-19T09:13:14;70.75;;;39.08;;
6497;SDS011;3282;48.358;10.958;2022-08-19T09:16:19;72.70;;;39.13;;
6497;SDS011;3282;48.358;10.958;2022-08-19T09:18:58;80.25;;;40.97;;
6497;SDS011;3282;48.358;10.958;2022-08-19T09:21:31;74.47;;;38.97;;
6497;SDS011;3282;48.358;10.958;2022-08-19T09:23:59;81.13;;;41.88;;
6497;SDS011;3282;48.358;10.958;2022-08-19T09:26:29;95.45;;;43.95;;
6497;SDS011;3282;48.358;10.958;2022-08-19T09:29:17;87.47;;;41.10;;
6497;SDS011;3282;48.358;10.958;2022-08-19T09:31:43;77.88;;;40.72;;
6497;SDS011;3282;48.358;10.958;2022-08-19T09:34:10;74.00;;;40.00;;
6497;SDS011;3282;48.358;10.958;2022-08-19T09:36:47;82.55;;;40.60;;
6497;SDS011;3282;48.358;10.958;2022-08-19T09:39:20;89.35;;;42.17;;
6497;SDS011;3282;48.358;10.958;2022-08-19T09:41:47;83.03;;;41.38;;
6497;SDS011;3282;48.358;10.958;2022-08-19T09:44:16;79.18;;;39.72;;
6497;SDS011;3282;48.358;10.958;2022-08-19T09:46:44;74.72;;;39.95;;
6497;SDS011;3282;48.358;10.958;2022-08-19T09:49:13;78.97;;;40.28;;
6497;SDS011;3282;48.358;10.958;2022-08-19T09:51:44;102.45;;;45.03;;
6497;SDS011;3282;48.358;10.958;2022-08-19T09:54:16;77.65;;;40.72;;
6497;SDS011;3282;48.358;10.958;2022-08-19T09:56:50;69.60;;;38.20;;
6497;SDS011;3282;48.358;10.958;2022-08-19T09:59:17;84.43;;;40.95;;
6497;SDS011;3282;48.358;10.958;2022-08-19T10:01:44;62.40;;;36.10;;
6497;SDS011;3282;48.358;10.958;2022-08-19T10:04:13;80.68;;;41.20;;
6497;SDS011;3282;48.358;10.958;2022-08-19T10:06:47;66.35;;;36.97;;
6497;SDS011;3282;48.358;10.958;2022-08-19T10:09:19;72.63;;;38.88;;
6497;SDS011;3282;48.358;10.958;2022-08-19T10:11:59;97.97;;;43.15;;
6497;SDS011;3282;48.358;10.958;2022-08-19T10:14:27;71.88;;;38.92;;
6497;SDS011;3282;48.358;10.958;2022-08-19T10:16:56;80.15;;;39.25;;
6497;SDS011;3282;48.358;10.958;2022-08-19T10:19:24;67.85;;;37.10;;
6497;SDS011;3282;48.358;10.958;2022-08-19T10:21:52;83.72;;;40.40;;
6497;SDS011;3282;48.358;10.958;2022-08-19T10:24:25;121.22;;;45.95;;
6497;SDS011;3282;48.358;10.958;2022-08-19T10:26:53;86.18;;;40.20;;
6497;SDS011;3282;48.358;10.958;2022-08-19T10:29:24;117.97;;;45.08;;
6497;SDS011;3282;48.358;10.958;2022-08-19T10:32:01;93.47;;;42.30;;
6497;SDS011;3282;48.358;10.958;2022-08-19T10:34:38;106.28;;;44.22;;
6497;SDS011;3282;48.358;10.958;2022-08-19T10:37:14;76.75;;;38.75;;
6497;SDS011;3282;48.358;10.958;2022-08-19T10:39:54;99.53;;;40.20;;
6497;SDS011;3282;48.358;10.958;2022-08-19T10:42:21;92.88;;;40.85;;
6497;SDS011;3282;48.358;10.958;2022-08-19T10:44:47;116.55;;;42.58;;
6497;SDS011;3282;48.358;10.958;2022-08-19T10:47:17;93.82;;;38.90;;
6497;SDS011;3282;48.358;10.958;2022-08-19T10:49:54;77.10;;;36.90;;
6497;SDS011;3282;48.358;10.958;2022-08-19T10:52:40;70.38;;;33.53;;
6497;SDS011;3282;48.358;10.958;2022-08-19T10:55:16;75.10;;;34.45;;
6497;SDS011;3282;48.358;10.958;2022-08-19T10:58:10;151.35;;;41.97;;
6497;SDS011;3282;48.358;10.958;2022-08-19T11:00:38;84.05;;;36.95;;
6497;SDS011;3282;48.358;10.958;2022-08-19T11:03:05;52.20;;;28.90;;
6497;SDS011;3282;48.358;10.958;2022-08-19T11:05:34;48.83;;;27.75;;
6497;SDS011;3282;48.358;10.958;2022-08-19T11:08:05;61.58;;;30.65;;
6497;SDS011;3282;48.358;10.958;2022-08-19T11:10:49;70.93;;;32.03;;
6497;SDS011;3282;48.358;10.958;2022-08-19T11:13:17;46.38;;;26.38;;
6497;SDS011;3282;48.358;10.958;2022-08-19T11:15:43;44.83;;;24.05;;
6497;SDS011;3282;48.358;10.958;2022-08-19T11:18:13;43.90;;;23.42;;
6497;SDS011;3282;48.358;10.958;2022-08-19T11:20:40;33.28;;;19.75;;
6497;SDS011;3282;48.358;10.958;2022-08-19T11:23:06;36.20;;;19.42;;
6497;SDS011;3282;48.358;10.958;2022-08-19T11:25:33;46.58;;;20.45;;
6497;SDS011;3282;48.358;10.958;2022-08-19T11:28:00;37.55;;;18.65;;
6497;SDS011;3282;48.358;10.958;2022-08-19T11:30:27;37.50;;;17.85;;
6497;SDS011;3282;48.358;10.958;2022-08-19T11:32:54;48.30;;;19.88;;
6497;SDS011;3282;48.358;10.958;2022-08-19T11:35:20;78.95;;;25.25;;
6497;SDS011;3282;48.358;10.958;2022-08-19T11:37:48;33.42;;;17.98;;
6497;SDS011;3282;48.358;10.958;2022-08-19T11:40:14;34.10;;;15.77;;
6497;SDS011;3282;48.358;10.958;2022-08-19T11:42:41;28.25;;;14.50;;
6497;SDS011;3282;48.358;10.958;2022-08-19T11:45:27;27.73;;;14.60;;
6497;SDS011;3282;48.358;10.958;2022-08-19T11:47:55;25.08;;;13.90;;
6497;SDS011;3282;48.358;10.958;2022-08-19T11:50:23;29.83;;;15.63;;
6497;SDS011;3282;48.358;10.958;2022-08-19T11:52:53;22.25;;;12.52;;
6497;SDS011;3282;48.358;10.958;2022-08-19T11:55:21;20.83;;;12.02;;
6497;SDS011;3282;48.358;10.958;2022-08-19T11:57:48;18.80;;;10.77;;
6497;SDS011;3282;48.358;10.958;2022-08-19T12:00:15;14.82;;;9.20;;
6497;SDS011;3282;48.358;10.958;2022-08-19T12:02:42;12.45;;;8.02;;
6497;SDS011;3282;48.358;10.958;2022-08-19T12:05:09;14.68;;;8.95;;
6497;SDS011;3282;48.358;10.958;2022-08-19T12:07:38;14.10;;;8.82;;
6497;SDS011;3282;48.358;10.958;2022-08-19T12:10:07;14.32;;;8.60;;
6497;SDS011;3282;48.358;10.958;2022-08-19T12:12:35;15.95;;;10.75;;
6497;SDS011;3282;48.358;10.958;2022-08-19T12:15:05;21.08;;;13.52;;
6497;SDS011;3282;48.358;10.958;2022-08-19T12:17:36;22.27;;;14.15;;
6497;SDS011;3282;48.358;10.958;2022-08-19T12:20:03;24.50;;;15.10;;
6497;SDS011;3282;48.358;10.958;2022-08-19T12:22:30;26.05;;;17.73;;
6497;SDS011;3282;48.358;10.958;2022-08-19T12:24:57;31.42;;;18.63;;
6497;SDS011;3282;48.358;10.958;2022-08-19T12:27:24;30.83;;;17.92;;
6497;SDS011;3282;48.358;10.958;2022-08-19T12:30:07;25.88;;;16.90;;
6497;SDS011;3282;48.358;10.958;2022-08-19T12:32:36;23.55;;;16.08;;
6497;SDS011;3282;48.358;10.958;2022-08-19T12:35:03;22.00;;;14.50;;
6497;SDS011;3282;48.358;10.958;2022-08-19T12:37:30;24.40;;;16.05;;
6497;SDS011;3282;48.358;10.958;2022-08-19T12:39:58;25.08;;;15.60;;
6497;SDS011;3282;48.358;10.958;2022-08-19T12:42:25;22.73;;;14.07;;
6497;SDS011;3282;48.358;10.958;2022-08-19T12:44:52;25.05;;;14.32;;
6497;SDS011;3282;48.358;10.958;2022-08-19T12:47:19;16.75;;;11.48;;
6497;SDS011;3282;48.358;10.958;2022-08-19T12:49:46;15.07;;;10.85;;
6497;SDS011;3282;48.358;10.958;2022-08-19T12:52:21;16.58;;;10.60;;
6497;SDS011;3282;48.358;10.958;2022-08-19T12:54:50;12.05;;;9.27;;
6497;SDS011;3282;48.358;10.958;2022-08-19T12:57:20;13.05;;;8.93;;
6497;SDS011;3282;48.358;10.958;2022-08-19T13:00:06;11.38;;;8.23;;
6497;SDS011;3282;48.358;10.958;2022-08-19T13:02:40;12.38;;;8.55;;
6497;SDS011;3282;48.358;10.958;2022-08-19T13:05:14;13.52;;;9.60;;
6497;SDS011;3282;48.358;10.958;2022-08-19T13:07:44;13.88;;;9.57;;
6497;SDS011;3282;48.358;10.958;2022-08-19T13:10:11;12.43;;;8.90;;
6497;SDS011;3282;48.358;10.958;2022-08-19T13:12:41;14.68;;;9.77;;
6497;SDS011;3282;48.358;10.958;2022-08-19T13:15:09;13.20;;;9.38;;
6497;SDS011;3282;48.358;10.958;2022-08-19T13:17:37;10.57;;;8.38;;
6497;SDS011;3282;48.358;10.958;2022-08-19T13:20:05;12.05;;;8.75;;
6497;SDS011;3282;48.358;10.958;2022-08-19T13:22:37;13.30;;;9.05;;
6497;SDS011;3282;48.358;10.958;2022-08-19T13:25:04;12.48;;;9.38;;
6497;SDS011;3282;48.358;10.958;2022-08-19T13:27:31;15.02;;;10.52;;
6497;SDS011;3282;48.358;10.958;2022-08-19T13:29:58;13.43;;;9.45;;
6497;SDS011;3282;48.358;10.958;2022-08-19T13:32:44;14.27;;;9.45;;
6497;SDS011;3282;48.358;10.958;2022-08-19T13:35:29;11.18;;;8.30;;
6497;SDS011;3282;48.358;10.958;2022-08-19T13:37:55;12.35;;;9.02;;
6497;SDS011;3282;48.358;10.958;2022-08-19T13:40:23;13.80;;;9.27;;
6497;SDS011;3282;48.358;10.958;2022-08-19T13:42:53;11.50;;;8.52;;
6497;SDS011;3282;48.358;10.958;2022-08-19T13:45:23;13.55;;;9.88;;
6497;SDS011;3282;48.358;10.958;2022-08-19T13:47:52;13.10;;;9.27;;
6497;SDS011;3282;48.358;10.958;2022-08-19T13:50:26;12.85;;;9.23;;
6497;SDS011;3282;48.358;10.958;2022-08-19T13:52:55;15.85;;;10.65;;
6497;SDS011;3282;48.358;10.958;2022-08-19T13:55:22;17.25;;;11.60;;
6497;SDS011;3282;48.358;10.958;2022-08-19T13:57:54;14.77;;;11.00;;
6497;SDS011;3282;48.358;10.958;2022-08-19T14:00:23;17.38;;;11.90;;
6497;SDS011;3282;48.358;10.958;2022-08-19T14:02:53;16.60;;;12.02;;
6497;SDS011;3282;48.358;10.958;2022-08-19T14:05:22;17.35;;;12.68;;
6497;SDS011;3282;48.358;10.958;2022-08-19T14:07:50;19.30;;;13.60;;
6497;SDS011;3282;48.358;10.958;2022-08-19T14:10:18;19.80;;;14.25;;
6497;SDS011;3282;48.358;10.958;2022-08-19T14:12:45;20.27;;;14.57;;
6497;SDS011;3282;48.358;10.958;2022-08-19T14:15:13;21.10;;;15.05;;
6497;SDS011;3282;48.358;10.958;2022-08-19T14:17:42;23.92;;;16.20;;
6497;SDS011;3282;48.358;10.958;2022-08-19T14:20:11;27.17;;;17.33;;
6497;SDS011;3282;48.358;10.958;2022-08-19T14:22:44;25.48;;;17.33;;
6497;SDS011;3282;48.358;10.958;2022-08-19T14:25:17;27.20;;;17.45;;
6497;SDS011;3282;48.358;10.958;2022-08-19T14:27:46;23.48;;;16.55;;
6497;SDS011;3282;48.358;10.958;2022-08-19T14:30:14;29.70;;;18.25;;
6497;SDS011;3282;48.358;10.958;2022-08-19T14:32:44;23.20;;;16.52;;
6497;SDS011;3282;48.358;10.958;2022-08-19T14:35:11;28.80;;;18.58;;
6497;SDS011;3282;48.358;10.958;2022-08-19T14:37:41;23.10;;;16.65;;
6497;SDS011;3282;48.358;10.958;2022-08-19T14:40:11;23.38;;;16.70;;
6497;SDS011;3282;48.358;10.958;2022-08-19T14:42:40;31.65;;;19.70;;
6497;SDS011;3282;48.358;10.958;2022-08-19T14:45:07;30.90;;;19.23;;
6497;SDS011;3282;48.358;10.958;2022-08-19T14:47:35;25.88;;;11.40;;
6497;SDS011;3282;48.358;10.958;2022-08-19T14:50:08;22.02;;;16.55;;
6497;SDS011;3282;48.358;10.958;2022-08-19T14:52:43;22.42;;;16.75;;
6497;SDS011;3282;48.358;10.958;2022-08-19T14:55:17;31.00;;;19.48;;
6497;SDS011;3282;48.358;10.958;2022-08-19T14:57:44;29.50;;;19.00;;
6497;SDS011;3282;48.358;10.958;2022-08-19T15:00:11;26.25;;;17.48;;
6497;SDS011;3282;48.358;10.958;2022-08-19T15:02:39;23.58;;;17.45;;
6497;SDS011;3282;48.358;10.958;2022-08-19T15:05:07;23.35;;;16.88;;
6497;SDS011;3282;48.358;10.958;2022-08-19T15:07:34;20.85;;;15.00;;
6497;SDS011;3282;48.358;10.958;2022-08-19T15:10:00;22.20;;;15.88;;
6497;SDS011;3282;48.358;10.958;2022-08-19T15:12:27;22.95;;;16.13;;